sensor_id;sensor_type;location;lat;lon;timestamp;temperature;humidity
15638;DHT22;26604;53.596;10.042;2023-02-22T00:01:41;8.30;99.90
15638;DHT22;26604;53.596;10.042;2023-02-22T00:04:15;8.30;99.90
15638;DHT22;26604;53.596;10.042;2023-02-22T00:06:45;8.30;99.90
15638;DHT22;26604;53.596;10.042;2023-02-22T00:09:12;8.30;99.90
15638;DHT22;26604;53.596;10.042;2023-02-22T00:11:46;8.30;99.90
15638;DHT22;26604;53.596;10.042;2023-02-22T00:14:13;8.30;99.90
15638;DHT22;26604;53.596;10.042;2023-02-22T00:16:44;8.30;99.90
15638;DHT22;26604;53.596;10.042;2023-02-22T00:19:11;8.20;99.90
15638;DHT22;26604;53.596;10.042;2023-02-22T00:21:37;8.30;99.90
15638;DHT22;26604;53.596;10.042;2023-02-22T00:24:04;8.30;99.90
15638;DHT22;26604;53.596;10.042;2023-02-22T00:26:49;8.30;99.90
15638;DHT22;26604;53.596;10.042;2023-02-22T00:29:15;8.20;99.90
15638;DHT22;26604;53.596;10.042;2023-02-22T00:31:42;8.20;99.90
15638;DHT22;26604;53.596;10.042;2023-02-22T00:34:08;8.20;99.90
15638;DHT22;26604;53.596;10.042;2023-02-22T00:36:35;8.20;99.90
15638;DHT22;26604;53.596;10.042;2023-02-22T00:39:02;8.20;99.90
15638;DHT22;26604;53.596;10.042;2023-02-22T00:41:29;8.20;99.90
15638;DHT22;26604;53.596;10.042;2023-02-22T00:43:57;8.20;99.90
15638;DHT22;26604;53.596;10.042;2023-02-22T00:46:23;8.20;99.90
15638;DHT22;26604;53.596;10.042;2023-02-22T00:48:50;8.10;99.90
15638;DHT22;26604;53.596;10.042;2023-02-22T00:51:17;8.10;99.90
15638;DHT22;26604;53.596;10.042;2023-02-22T00:53:44;8.00;99.90
15638;DHT22;26604;53.596;10.042;2023-02-22T00:56:10;8.10;99.90
15638;DHT22;26604;53.596;10.042;2023-02-22T00:58:37;8.00;99.90
15638;DHT22;26604;53.596;10.042;2023-02-22T01:01:05;8.00;99.90
15638;DHT22;26604;53.596;10.042;2023-02-22T01:03:32;8.00;99.90
15638;DHT22;26604;53.596;10.042;2023-02-22T01:05:59;8.00;99.90
15638;DHT22;26604;53.596;10.042;2023-02-22T01:08:26;8.00;99.90
15638;DHT22;26604;53.596;10.042;2023-02-22T01:10:55;8.00;99.90
15638;DHT22;26604;53.596;10.042;2023-02-22T01:13:22;8.00;99.90
15638;DHT22;26604;53.596;10.042;2023-02-22T01:15:48;8.00;99.90
15638;DHT22;26604;53.596;10.042;2023-02-22T01:18:17;8.00;99.90
15638;DHT22;26604;53.596;10.042;2023-02-22T01:20:46;8.00;99.90
15638;DHT22;26604;53.596;10.042;2023-02-22T01:23:13;8.00;99.90
15638;DHT22;26604;53.596;10.042;2023-02-22T01:25:41;8.00;99.90
15638;DHT22;26604;53.596;10.042;2023-02-22T01:28:08;8.00;99.90
15638;DHT22;26604;53.596;10.042;2023-02-22T01:30:35;8.00;99.90
15638;DHT22;26604;53.596;10.042;2023-02-22T01:33:04;8.00;99.90
15638;DHT22;26604;53.596;10.042;2023-02-22T01:35:33;8.00;99.90
15638;DHT22;26604;53.596;10.042;2023-02-22T01:38:00;8.00;99.90
15638;DHT22;26604;53.596;10.042;2023-02-22T01:40:28;8.00;99.90
15638;DHT22;26604;53.596;10.042;2023-02-22T01:42:56;8.00;99.90
15638;DHT22;26604;53.596;10.042;2023-02-22T01:48:12;8.00;99.90
15638;DHT22;26604;53.596;10.042;2023-02-22T01:50:43;8.00;99.90
15638;DHT22;26604;53.596;10.042;2023-02-22T01:53:11;8.00;99.90
15638;DHT22;26604;53.596;10.042;2023-02-22T01:55:39;8.00;99.90
15638;DHT22;26604;53.596;10.042;2023-02-22T01:58:06;8.00;99.90
15638;DHT22;26604;53.596;10.042;2023-02-22T02:00:33;8.00;99.90
15638;DHT22;26604;53.596;10.042;2023-02-22T02:03:01;8.00;99.90
15638;DHT22;26604;53.596;10.042;2023-02-22T02:05:28;8.00;99.90
15638;DHT22;26604;53.596;10.042;2023-02-22T02:07:58;8.00;99.90
15638;DHT22;26604;53.596;10.042;2023-02-22T02:10:27;7.90;99.90
15638;DHT22;26604;53.596;10.042;2023-02-22T02:12:54;8.00;99.90
15638;DHT22;26604;53.596;10.042;2023-02-22T02:15:23;8.00;99.90
15638;DHT22;26604;53.596;10.042;2023-02-22T02:17:51;8.00;99.90
15638;DHT22;26604;53.596;10.042;2023-02-22T02:20:20;8.00;99.90
15638;DHT22;26604;53.596;10.042;2023-02-22T02:22:50;8.00;99.90
15638;DHT22;26604;53.596;10.042;2023-02-22T02:25:28;8.00;99.90
15638;DHT22;26604;53.596;10.042;2023-02-22T02:30:48;8.00;99.90
15638;DHT22;26604;53.596;10.042;2023-02-22T02:33:23;8.00;99.90
15638;DHT22;26604;53.596;10.042;2023-02-22T02:35:53;8.00;99.90
15638;DHT22;26604;53.596;10.042;2023-02-22T02:38:30;8.00;99.90
15638;DHT22;26604;53.596;10.042;2023-02-22T02:41:02;8.00;99.90
15638;DHT22;26604;53.596;10.042;2023-02-22T02:43:31;8.00;99.90
15638;DHT22;26604;53.596;10.042;2023-02-22T02:46:00;8.00;99.90
15638;DHT22;26604;53.596;10.042;2023-02-22T02:48:31;8.00;99.90
15638;DHT22;26604;53.596;10.042;2023-02-22T02:51:00;8.00;99.90
15638;DHT22;26604;53.596;10.042;2023-02-22T02:53:29;8.00;99.90
15638;DHT22;26604;53.596;10.042;2023-02-22T02:55:57;8.00;99.90
15638;DHT22;26604;53.596;10.042;2023-02-22T02:58:24;8.00;99.90
15638;DHT22;26604;53.596;10.042;2023-02-22T03:00:51;8.00;99.90
15638;DHT22;26604;53.596;10.042;2023-02-22T03:03:23;8.00;99.90
15638;DHT22;26604;53.596;10.042;2023-02-22T03:06:01;8.00;99.90
15638;DHT22;26604;53.596;10.042;2023-02-22T03:08:31;8.00;99.90
15638;DHT22;26604;53.596;10.042;2023-02-22T03:11:02;8.00;99.90
15638;DHT22;26604;53.596;10.042;2023-02-22T03:13:38;8.00;99.90
15638;DHT22;26604;53.596;10.042;2023-02-22T03:16:08;8.00;99.90
15638;DHT22;26604;53.596;10.042;2023-02-22T03:18:39;8.00;99.90
15638;DHT22;26604;53.596;10.042;2023-02-22T03:21:13;8.00;99.90
15638;DHT22;26604;53.596;10.042;2023-02-22T03:23:45;8.00;99.90
15638;DHT22;26604;53.596;10.042;2023-02-22T03:26:15;8.00;99.90
15638;DHT22;26604;53.596;10.042;2023-02-22T03:28:43;8.00;99.90
15638;DHT22;26604;53.596;10.042;2023-02-22T03:31:12;8.00;99.90
15638;DHT22;26604;53.596;10.042;2023-02-22T03:33:40;8.00;99.90
15638;DHT22;26604;53.596;10.042;2023-02-22T03:36:09;8.00;99.90
15638;DHT22;26604;53.596;10.042;2023-02-22T03:38:40;8.00;99.90
15638;DHT22;26604;53.596;10.042;2023-02-22T03:41:08;8.00;99.90
15638;DHT22;26604;53.596;10.042;2023-02-22T03:43:36;8.00;99.90
15638;DHT22;26604;53.596;10.042;2023-02-22T03:46:04;8.00;99.90
15638;DHT22;26604;53.596;10.042;2023-02-22T03:48:34;8.00;99.90
15638;DHT22;26604;53.596;10.042;2023-02-22T03:51:01;8.00;99.90
15638;DHT22;26604;53.596;10.042;2023-02-22T03:53:29;8.00;99.90
15638;DHT22;26604;53.596;10.042;2023-02-22T03:55:57;8.00;99.90
15638;DHT22;26604;53.596;10.042;2023-02-22T03:58:24;8.00;99.90
15638;DHT22;26604;53.596;10.042;2023-02-22T04:00:53;8.00;99.90
15638;DHT22;26604;53.596;10.042;2023-02-22T04:03:20;8.00;99.90
15638;DHT22;26604;53.596;10.042;2023-02-22T04:05:47;8.00;99.90
15638;DHT22;26604;53.596;10.042;2023-02-22T04:08:14;8.00;99.90
15638;DHT22;26604;53.596;10.042;2023-02-22T04:10:41;8.00;99.90
15638;DHT22;26604;53.596;10.042;2023-02-22T04:13:09;8.00;99.90
15638;DHT22;26604;53.596;10.042;2023-02-22T04:15:36;8.00;99.90
15638;DHT22;26604;53.596;10.042;2023-02-22T04:18:03;8.10;99.90
15638;DHT22;26604;53.596;10.042;2023-02-22T04:20:30;8.00;99.90
15638;DHT22;26604;53.596;10.042;2023-02-22T04:22:56;8.10;99.90
15638;DHT22;26604;53.596;10.042;2023-02-22T04:25:23;8.00;99.90
15638;DHT22;26604;53.596;10.042;2023-02-22T04:27:50;8.00;99.90
15638;DHT22;26604;53.596;10.042;2023-02-22T04:30:18;8.00;99.90
15638;DHT22;26604;53.596;10.042;2023-02-22T04:32:45;8.00;99.90
15638;DHT22;26604;53.596;10.042;2023-02-22T04:35:12;8.00;99.90
15638;DHT22;26604;53.596;10.042;2023-02-22T04:37:38;8.00;99.90
15638;DHT22;26604;53.596;10.042;2023-02-22T04:40:05;8.00;99.90
15638;DHT22;26604;53.596;10.042;2023-02-22T04:42:32;8.00;99.90
15638;DHT22;26604;53.596;10.042;2023-02-22T04:44:59;8.00;99.90
15638;DHT22;26604;53.596;10.042;2023-02-22T04:47:27;8.00;99.90
15638;DHT22;26604;53.596;10.042;2023-02-22T04:49:53;8.10;99.90
15638;DHT22;26604;53.596;10.042;2023-02-22T04:52:20;8.00;99.90
15638;DHT22;26604;53.596;10.042;2023-02-22T04:54:47;8.10;99.90
15638;DHT22;26604;53.596;10.042;2023-02-22T04:57:15;8.10;99.90
15638;DHT22;26604;53.596;10.042;2023-02-22T04:59:41;8.10;99.90
15638;DHT22;26604;53.596;10.042;2023-02-22T05:02:08;8.10;99.90
15638;DHT22;26604;53.596;10.042;2023-02-22T05:04:37;8.10;99.90
15638;DHT22;26604;53.596;10.042;2023-02-22T05:07:04;8.10;99.90
15638;DHT22;26604;53.596;10.042;2023-02-22T05:09:31;8.10;99.90
15638;DHT22;26604;53.596;10.042;2023-02-22T05:11:57;8.10;99.90
15638;DHT22;26604;53.596;10.042;2023-02-22T05:14:24;8.10;99.90
15638;DHT22;26604;53.596;10.042;2023-02-22T05:16:52;8.10;99.90
15638;DHT22;26604;53.596;10.042;2023-02-22T05:19:19;8.10;99.90
15638;DHT22;26604;53.596;10.042;2023-02-22T05:21:48;8.10;99.90
15638;DHT22;26604;53.596;10.042;2023-02-22T05:24:14;8.20;99.90
15638;DHT22;26604;53.596;10.042;2023-02-22T05:26:41;8.10;99.90
15638;DHT22;26604;53.596;10.042;2023-02-22T05:29:08;8.20;99.90
15638;DHT22;26604;53.596;10.042;2023-02-22T05:31:35;8.20;99.90
15638;DHT22;26604;53.596;10.042;2023-02-22T05:34:02;8.20;99.90
15638;DHT22;26604;53.596;10.042;2023-02-22T05:36:28;8.20;99.90
15638;DHT22;26604;53.596;10.042;2023-02-22T05:38:56;8.20;99.90
15638;DHT22;26604;53.596;10.042;2023-02-22T05:41:23;8.20;99.90
15638;DHT22;26604;53.596;10.042;2023-02-22T05:43:50;8.20;99.90
15638;DHT22;26604;53.596;10.042;2023-02-22T05:46:17;8.20;99.90
15638;DHT22;26604;53.596;10.042;2023-02-22T05:48:44;8.20;99.90
15638;DHT22;26604;53.596;10.042;2023-02-22T05:51:10;8.20;99.90
15638;DHT22;26604;53.596;10.042;2023-02-22T05:53:37;8.20;99.90
15638;DHT22;26604;53.596;10.042;2023-02-22T05:56:05;8.20;99.90
15638;DHT22;26604;53.596;10.042;2023-02-22T05:58:32;8.10;99.90
15638;DHT22;26604;53.596;10.042;2023-02-22T06:00:59;8.20;99.90
15638;DHT22;26604;53.596;10.042;2023-02-22T06:03:25;8.20;99.90
15638;DHT22;26604;53.596;10.042;2023-02-22T06:05:52;8.20;99.90
15638;DHT22;26604;53.596;10.042;2023-02-22T06:08:19;8.20;99.90
15638;DHT22;26604;53.596;10.042;2023-02-22T06:10:45;8.20;99.90
15638;DHT22;26604;53.596;10.042;2023-02-22T06:13:13;8.30;99.90
15638;DHT22;26604;53.596;10.042;2023-02-22T06:15:40;8.30;99.90
15638;DHT22;26604;53.596;10.042;2023-02-22T06:18:07;8.30;99.90
15638;DHT22;26604;53.596;10.042;2023-02-22T06:20:33;8.20;99.90
15638;DHT22;26604;53.596;10.042;2023-02-22T06:23:00;8.30;99.90
15638;DHT22;26604;53.596;10.042;2023-02-22T06:25:27;8.30;99.90
15638;DHT22;26604;53.596;10.042;2023-02-22T06:27:55;8.30;99.90
15638;DHT22;26604;53.596;10.042;2023-02-22T06:30:23;8.20;99.90
15638;DHT22;26604;53.596;10.042;2023-02-22T06:32:50;8.30;99.90
15638;DHT22;26604;53.596;10.042;2023-02-22T06:35:17;8.30;99.90
15638;DHT22;26604;53.596;10.042;2023-02-22T06:37:44;8.20;99.90
15638;DHT22;26604;53.596;10.042;2023-02-22T06:40:11;8.20;99.90
15638;DHT22;26604;53.596;10.042;2023-02-22T06:42:38;8.20;99.90
15638;DHT22;26604;53.596;10.042;2023-02-22T06:45:05;8.30;99.90
15638;DHT22;26604;53.596;10.042;2023-02-22T06:47:33;8.30;99.90
15638;DHT22;26604;53.596;10.042;2023-02-22T06:50:02;8.20;99.90
15638;DHT22;26604;53.596;10.042;2023-02-22T06:52:29;8.30;99.90
15638;DHT22;26604;53.596;10.042;2023-02-22T06:54:56;8.30;99.90
15638;DHT22;26604;53.596;10.042;2023-02-22T06:57:22;8.30;99.90
15638;DHT22;26604;53.596;10.042;2023-02-22T06:59:49;8.30;99.90
15638;DHT22;26604;53.596;10.042;2023-02-22T07:02:16;8.30;99.90
15638;DHT22;26604;53.596;10.042;2023-02-22T07:04:45;8.30;99.90
15638;DHT22;26604;53.596;10.042;2023-02-22T07:07:11;8.40;99.90
15638;DHT22;26604;53.596;10.042;2023-02-22T07:09:38;8.40;99.90
15638;DHT22;26604;53.596;10.042;2023-02-22T07:12:05;8.40;99.90
15638;DHT22;26604;53.596;10.042;2023-02-22T07:14:32;8.40;99.90
15638;DHT22;26604;53.596;10.042;2023-02-22T07:16:58;8.40;99.90
15638;DHT22;26604;53.596;10.042;2023-02-22T07:19:25;8.50;99.90
15638;DHT22;26604;53.596;10.042;2023-02-22T07:21:53;8.50;99.90
15638;DHT22;26604;53.596;10.042;2023-02-22T07:24:23;8.50;99.90
15638;DHT22;26604;53.596;10.042;2023-02-22T07:26:50;8.50;99.90
15638;DHT22;26604;53.596;10.042;2023-02-22T07:29:18;8.60;99.90
15638;DHT22;26604;53.596;10.042;2023-02-22T07:31:46;8.60;99.90
15638;DHT22;26604;53.596;10.042;2023-02-22T07:34:13;8.60;99.90
15638;DHT22;26604;53.596;10.042;2023-02-22T07:36:40;8.60;99.90
15638;DHT22;26604;53.596;10.042;2023-02-22T07:39:08;8.60;99.90
15638;DHT22;26604;53.596;10.042;2023-02-22T07:41:35;8.70;99.90
15638;DHT22;26604;53.596;10.042;2023-02-22T07:44:02;8.70;99.90
15638;DHT22;26604;53.596;10.042;2023-02-22T07:46:28;8.70;99.90
15638;DHT22;26604;53.596;10.042;2023-02-22T07:48:55;8.70;99.90
15638;DHT22;26604;53.596;10.042;2023-02-22T07:51:22;8.70;99.90
15638;DHT22;26604;53.596;10.042;2023-02-22T07:53:48;8.80;99.90
15638;DHT22;26604;53.596;10.042;2023-02-22T07:56:16;8.80;99.90
15638;DHT22;26604;53.596;10.042;2023-02-22T07:58:43;8.80;99.90
15638;DHT22;26604;53.596;10.042;2023-02-22T08:01:10;8.90;99.90
15638;DHT22;26604;53.596;10.042;2023-02-22T08:03:36;8.90;99.90
15638;DHT22;26604;53.596;10.042;2023-02-22T08:06:04;8.90;99.90
15638;DHT22;26604;53.596;10.042;2023-02-22T08:08:31;8.90;99.90
15638;DHT22;26604;53.596;10.042;2023-02-22T08:10:58;9.00;99.90
15638;DHT22;26604;53.596;10.042;2023-02-22T08:13:26;9.00;99.90
15638;DHT22;26604;53.596;10.042;2023-02-22T08:15:53;9.10;99.90
15638;DHT22;26604;53.596;10.042;2023-02-22T08:18:21;9.10;99.90
15638;DHT22;26604;53.596;10.042;2023-02-22T08:20:48;9.10;99.90
15638;DHT22;26604;53.596;10.042;2023-02-22T08:23:16;9.20;99.90
15638;DHT22;26604;53.596;10.042;2023-02-22T08:25:43;9.30;99.90
15638;DHT22;26604;53.596;10.042;2023-02-22T08:28:11;9.30;99.90
15638;DHT22;26604;53.596;10.042;2023-02-22T08:30:39;9.30;99.90
15638;DHT22;26604;53.596;10.042;2023-02-22T08:33:07;9.30;99.90
15638;DHT22;26604;53.596;10.042;2023-02-22T08:35:33;9.40;99.90
15638;DHT22;26604;53.596;10.042;2023-02-22T08:38:00;9.40;99.90
15638;DHT22;26604;53.596;10.042;2023-02-22T08:40:28;9.40;99.90
15638;DHT22;26604;53.596;10.042;2023-02-22T08:42:56;9.50;99.90
15638;DHT22;26604;53.596;10.042;2023-02-22T08:45:22;9.60;99.90
15638;DHT22;26604;53.596;10.042;2023-02-22T08:47:50;9.60;99.90
15638;DHT22;26604;53.596;10.042;2023-02-22T08:50:18;9.70;99.90
15638;DHT22;26604;53.596;10.042;2023-02-22T08:52:45;9.80;99.90
15638;DHT22;26604;53.596;10.042;2023-02-22T08:55:12;9.80;99.90
15638;DHT22;26604;53.596;10.042;2023-02-22T08:57:39;9.80;99.90
15638;DHT22;26604;53.596;10.042;2023-02-22T09:00:06;9.90;99.90
15638;DHT22;26604;53.596;10.042;2023-02-22T09:02:33;9.90;99.90
15638;DHT22;26604;53.596;10.042;2023-02-22T09:05:01;9.90;99.90
15638;DHT22;26604;53.596;10.042;2023-02-22T09:07:30;9.90;99.90
15638;DHT22;26604;53.596;10.042;2023-02-22T09:09:56;10.00;99.90
15638;DHT22;26604;53.596;10.042;2023-02-22T09:12:23;10.00;99.90
15638;DHT22;26604;53.596;10.042;2023-02-22T09:14:50;10.20;99.90
15638;DHT22;26604;53.596;10.042;2023-02-22T09:17:16;10.40;99.90
15638;DHT22;26604;53.596;10.042;2023-02-22T09:19:43;10.40;99.90
15638;DHT22;26604;53.596;10.042;2023-02-22T09:22:11;10.50;99.90
15638;DHT22;26604;53.596;10.042;2023-02-22T09:24:38;10.60;99.90
15638;DHT22;26604;53.596;10.042;2023-02-22T09:27:07;10.60;99.90
15638;DHT22;26604;53.596;10.042;2023-02-22T09:29:35;10.70;99.90
15638;DHT22;26604;53.596;10.042;2023-02-22T09:32:01;10.60;99.90
15638;DHT22;26604;53.596;10.042;2023-02-22T09:34:28;10.60;99.90
15638;DHT22;26604;53.596;10.042;2023-02-22T09:36:59;10.60;99.90
15638;DHT22;26604;53.596;10.042;2023-02-22T09:39:27;10.60;99.90
15638;DHT22;26604;53.596;10.042;2023-02-22T09:41:55;10.60;99.90
15638;DHT22;26604;53.596;10.042;2023-02-22T09:44:27;10.50;99.90
15638;DHT22;26604;53.596;10.042;2023-02-22T09:46:56;10.50;99.90
15638;DHT22;26604;53.596;10.042;2023-02-22T09:49:23;10.40;99.90
15638;DHT22;26604;53.596;10.042;2023-02-22T09:51:54;10.40;99.90
15638;DHT22;26604;53.596;10.042;2023-02-22T09:54:24;10.30;99.90
15638;DHT22;26604;53.596;10.042;2023-02-22T09:56:54;10.30;99.90
15638;DHT22;26604;53.596;10.042;2023-02-22T09:59:23;10.30;99.90
15638;DHT22;26604;53.596;10.042;2023-02-22T10:01:57;10.30;99.90
15638;DHT22;26604;53.596;10.042;2023-02-22T10:04:28;10.20;99.90
15638;DHT22;26604;53.596;10.042;2023-02-22T10:07:00;10.30;99.90
15638;DHT22;26604;53.596;10.042;2023-02-22T10:09:30;10.30;99.90
15638;DHT22;26604;53.596;10.042;2023-02-22T10:12:00;10.30;99.90
15638;DHT22;26604;53.596;10.042;2023-02-22T10:14:41;10.40;99.90
15638;DHT22;26604;53.596;10.042;2023-02-22T10:17:10;10.40;99.90
15638;DHT22;26604;53.596;10.042;2023-02-22T10:19:43;10.40;99.90
15638;DHT22;26604;53.596;10.042;2023-02-22T10:22:20;10.50;99.90
15638;DHT22;26604;53.596;10.042;2023-02-22T10:24:53;10.50;99.90
15638;DHT22;26604;53.596;10.042;2023-02-22T10:27:25;10.40;99.90
15638;DHT22;26604;53.596;10.042;2023-02-22T10:29:55;10.50;99.90
15638;DHT22;26604;53.596;10.042;2023-02-22T10:32:25;10.50;99.90
15638;DHT22;26604;53.596;10.042;2023-02-22T10:34:53;10.50;99.90
15638;DHT22;26604;53.596;10.042;2023-02-22T10:37:23;10.60;99.90
15638;DHT22;26604;53.596;10.042;2023-02-22T10:39:52;10.80;99.90
15638;DHT22;26604;53.596;10.042;2023-02-22T10:42:21;10.90;99.90
15638;DHT22;26604;53.596;10.042;2023-02-22T10:44:51;11.10;99.90
15638;DHT22;26604;53.596;10.042;2023-02-22T10:47:18;11.20;99.90
15638;DHT22;26604;53.596;10.042;2023-02-22T10:49:46;11.30;99.90
15638;DHT22;26604;53.596;10.042;2023-02-22T10:52:16;11.40;99.90
15638;DHT22;26604;53.596;10.042;2023-02-22T10:54:45;11.40;99.90
15638;DHT22;26604;53.596;10.042;2023-02-22T10:57:12;11.50;99.90
15638;DHT22;26604;53.596;10.042;2023-02-22T10:59:39;11.60;99.90
15638;DHT22;26604;53.596;10.042;2023-02-22T11:02:15;11.70;99.90
15638;DHT22;26604;53.596;10.042;2023-02-22T11:04:44;11.80;99.90
15638;DHT22;26604;53.596;10.042;2023-02-22T11:07:17;11.80;99.90
15638;DHT22;26604;53.596;10.042;2023-02-22T11:09:44;11.80;99.90
15638;DHT22;26604;53.596;10.042;2023-02-22T11:12:16;11.90;99.90
15638;DHT22;26604;53.596;10.042;2023-02-22T11:14:43;11.90;99.90
15638;DHT22;26604;53.596;10.042;2023-02-22T11:17:12;11.90;99.90
15638;DHT22;26604;53.596;10.042;2023-02-22T11:19:44;11.90;99.90
15638;DHT22;26604;53.596;10.042;2023-02-22T11:22:12;11.90;99.90
15638;DHT22;26604;53.596;10.042;2023-02-22T11:24:43;11.90;99.90
15638;DHT22;26604;53.596;10.042;2023-02-22T11:27:10;12.00;99.90
15638;DHT22;26604;53.596;10.042;2023-02-22T11:29:45;12.00;99.90
15638;DHT22;26604;53.596;10.042;2023-02-22T11:32:17;12.10;99.90
15638;DHT22;26604;53.596;10.042;2023-02-22T11:34:46;12.20;99.90
15638;DHT22;26604;53.596;10.042;2023-02-22T11:37:15;12.20;99.90
15638;DHT22;26604;53.596;10.042;2023-02-22T11:39:42;12.30;99.90
15638;DHT22;26604;53.596;10.042;2023-02-22T11:42:21;12.30;99.90
15638;DHT22;26604;53.596;10.042;2023-02-22T11:44:49;12.30;99.90
15638;DHT22;26604;53.596;10.042;2023-02-22T11:47:34;12.30;99.90
15638;DHT22;26604;53.596;10.042;2023-02-22T11:50:01;12.30;99.90
15638;DHT22;26604;53.596;10.042;2023-02-22T11:52:28;12.40;99.90
15638;DHT22;26604;53.596;10.042;2023-02-22T11:55:12;12.50;99.90
15638;DHT22;26604;53.596;10.042;2023-02-22T11:57:52;12.70;99.90
15638;DHT22;26604;53.596;10.042;2023-02-22T12:00:22;12.90;99.90
15638;DHT22;26604;53.596;10.042;2023-02-22T12:05:51;13.40;99.90
15638;DHT22;26604;53.596;10.042;2023-02-22T12:08:26;13.60;99.90
15638;DHT22;26604;53.596;10.042;2023-02-22T12:10:59;13.80;99.90
15638;DHT22;26604;53.596;10.042;2023-02-22T12:13:36;14.00;99.90
15638;DHT22;26604;53.596;10.042;2023-02-22T12:16:08;14.10;99.90
15638;DHT22;26604;53.596;10.042;2023-02-22T12:18:38;14.10;99.90
15638;DHT22;26604;53.596;10.042;2023-02-22T12:21:10;14.10;99.90
15638;DHT22;26604;53.596;10.042;2023-02-22T12:23:39;14.10;99.90
15638;DHT22;26604;53.596;10.042;2023-02-22T12:26:09;14.00;99.90
15638;DHT22;26604;53.596;10.042;2023-02-22T12:28:39;14.10;99.90
15638;DHT22;26604;53.596;10.042;2023-02-22T12:31:13;14.10;99.90
15638;DHT22;26604;53.596;10.042;2023-02-22T12:33:45;14.10;99.90
15638;DHT22;26604;53.596;10.042;2023-02-22T12:36:16;14.10;99.90
15638;DHT22;26604;53.596;10.042;2023-02-22T12:38:47;14.10;99.90
15638;DHT22;26604;53.596;10.042;2023-02-22T12:41:17;14.10;99.90
15638;DHT22;26604;53.596;10.042;2023-02-22T12:43:46;14.20;99.90
15638;DHT22;26604;53.596;10.042;2023-02-22T12:46:17;14.40;99.90
15638;DHT22;26604;53.596;10.042;2023-02-22T12:48:46;14.40;99.90
15638;DHT22;26604;53.596;10.042;2023-02-22T12:51:22;14.40;99.90
15638;DHT22;26604;53.596;10.042;2023-02-22T12:53:52;14.30;99.90
15638;DHT22;26604;53.596;10.042;2023-02-22T12:56:22;14.20;99.90
15638;DHT22;26604;53.596;10.042;2023-02-22T12:58:53;14.10;99.90
15638;DHT22;26604;53.596;10.042;2023-02-22T13:01:21;14.00;99.90
15638;DHT22;26604;53.596;10.042;2023-02-22T13:03:49;14.00;99.90
15638;DHT22;26604;53.596;10.042;2023-02-22T13:06:26;13.90;99.90
15638;DHT22;26604;53.596;10.042;2023-02-22T13:08:57;13.90;99.90
15638;DHT22;26604;53.596;10.042;2023-02-22T13:11:30;13.80;99.90
15638;DHT22;26604;53.596;10.042;2023-02-22T13:14:03;13.80;99.90
15638;DHT22;26604;53.596;10.042;2023-02-22T13:16:34;13.80;99.90
15638;DHT22;26604;53.596;10.042;2023-02-22T13:19:05;13.80;99.90
15638;DHT22;26604;53.596;10.042;2023-02-22T13:21:40;13.80;99.90
15638;DHT22;26604;53.596;10.042;2023-02-22T13:24:13;13.70;99.90
15638;DHT22;26604;53.596;10.042;2023-02-22T13:26:45;13.70;99.90
15638;DHT22;26604;53.596;10.042;2023-02-22T13:29:15;13.70;99.90
15638;DHT22;26604;53.596;10.042;2023-02-22T13:31:47;13.60;99.90
15638;DHT22;26604;53.596;10.042;2023-02-22T13:37:16;13.50;99.90
15638;DHT22;26604;53.596;10.042;2023-02-22T13:40:04;13.40;99.90
15638;DHT22;26604;53.596;10.042;2023-02-22T13:42:44;13.30;99.90
15638;DHT22;26604;53.596;10.042;2023-02-22T13:48:03;13.20;99.90
15638;DHT22;26604;53.596;10.042;2023-02-22T13:53:26;13.20;99.90
15638;DHT22;26604;53.596;10.042;2023-02-22T13:55:55;13.10;99.90
15638;DHT22;26604;53.596;10.042;2023-02-22T13:58:22;13.10;99.90
15638;DHT22;26604;53.596;10.042;2023-02-22T14:00:49;13.00;99.90
15638;DHT22;26604;53.596;10.042;2023-02-22T14:06:05;12.90;99.90
15638;DHT22;26604;53.596;10.042;2023-02-22T14:08:43;13.00;99.90
15638;DHT22;26604;53.596;10.042;2023-02-22T14:14:14;12.90;99.90
15638;DHT22;26604;53.596;10.042;2023-02-22T14:16:42;12.90;99.90
15638;DHT22;26604;53.596;10.042;2023-02-22T14:19:13;12.80;99.90
15638;DHT22;26604;53.596;10.042;2023-02-22T14:21:54;12.80;99.90
15638;DHT22;26604;53.596;10.042;2023-02-22T14:24:22;12.70;99.90
15638;DHT22;26604;53.596;10.042;2023-02-22T14:26:59;12.70;99.90
15638;DHT22;26604;53.596;10.042;2023-02-22T14:29:27;12.60;99.90
15638;DHT22;26604;53.596;10.042;2023-02-22T14:32:04;12.60;99.90
15638;DHT22;26604;53.596;10.042;2023-02-22T14:34:42;12.60;99.90
15638;DHT22;26604;53.596;10.042;2023-02-22T14:37:11;12.50;99.90
15638;DHT22;26604;53.596;10.042;2023-02-22T14:39:41;12.40;99.90
15638;DHT22;26604;53.596;10.042;2023-02-22T14:42:10;12.40;99.90
15638;DHT22;26604;53.596;10.042;2023-02-22T14:44:41;12.30;99.90
15638;DHT22;26604;53.596;10.042;2023-02-22T14:47:13;12.30;99.90
15638;DHT22;26604;53.596;10.042;2023-02-22T14:49:41;12.20;99.90
15638;DHT22;26604;53.596;10.042;2023-02-22T14:52:15;12.20;99.90
15638;DHT22;26604;53.596;10.042;2023-02-22T14:54:48;12.10;99.90
15638;DHT22;26604;53.596;10.042;2023-02-22T14:57:18;12.10;99.90
15638;DHT22;26604;53.596;10.042;2023-02-22T14:59:49;12.00;99.90
15638;DHT22;26604;53.596;10.042;2023-02-22T15:02:19;12.00;99.90
15638;DHT22;26604;53.596;10.042;2023-02-22T15:04:50;11.90;99.90
15638;DHT22;26604;53.596;10.042;2023-02-22T15:07:23;11.90;99.90
15638;DHT22;26604;53.596;10.042;2023-02-22T15:10:04;11.80;99.90
15638;DHT22;26604;53.596;10.042;2023-02-22T15:12:31;11.80;99.90
15638;DHT22;26604;53.596;10.042;2023-02-22T15:15:12;11.70;99.90
15638;DHT22;26604;53.596;10.042;2023-02-22T15:17:39;11.70;99.90
15638;DHT22;26604;53.596;10.042;2023-02-22T15:20:07;11.60;99.90
15638;DHT22;26604;53.596;10.042;2023-02-22T15:22:35;11.60;99.90
15638;DHT22;26604;53.596;10.042;2023-02-22T15:25:03;11.50;99.90
15638;DHT22;26604;53.596;10.042;2023-02-22T15:27:31;11.50;99.90
15638;DHT22;26604;53.596;10.042;2023-02-22T15:30:02;11.50;99.90
15638;DHT22;26604;53.596;10.042;2023-02-22T15:32:30;11.40;99.90
15638;DHT22;26604;53.596;10.042;2023-02-22T15:35:07;11.40;99.90
15638;DHT22;26604;53.596;10.042;2023-02-22T15:37:37;11.40;99.90
15638;DHT22;26604;53.596;10.042;2023-02-22T15:40:04;11.30;99.90
15638;DHT22;26604;53.596;10.042;2023-02-22T15:42:43;11.20;99.90
15638;DHT22;26604;53.596;10.042;2023-02-22T15:45:13;11.20;99.90
15638;DHT22;26604;53.596;10.042;2023-02-22T15:47:40;11.20;99.90
15638;DHT22;26604;53.596;10.042;2023-02-22T15:50:14;11.20;99.90
15638;DHT22;26604;53.596;10.042;2023-02-22T15:52:45;11.10;99.90
15638;DHT22;26604;53.596;10.042;2023-02-22T15:55:13;11.10;99.90
15638;DHT22;26604;53.596;10.042;2023-02-22T15:57:41;11.10;99.90
15638;DHT22;26604;53.596;10.042;2023-02-22T16:00:17;11.10;99.90